METAR Data
IDs: Format: Raw Decoded Include TAF

Data at: 0131 UTC 24 Oct 2019

METAR for:KIFA (Iowa Falls Muni, IA, US)
Text:KIFA 240115Z AUTO 33004KT 10SM BKN022 OVC033 04/01 A3008 RMK AO2 T00370011
Temperature: 3.7°C ( 39°F)
Dewpoint: 1.1°C ( 34°F) [RH = 83%]
Pressure (altimeter):30.08 inches Hg (1018.7 mb)
Winds:from the NNW (330 degrees) at 5 MPH (4 knots; 2.1 m/s)
Visibility:10 or more sm (16+ km)
Ceiling:2200 feet AGL
Clouds: broken clouds at 2200 feet AGL, overcast cloud deck at 3300 feet AGL
QC Flag:automated observation with no human augmentation